sensor_id;sensor_type;location;lat;lon;timestamp;temperature;humidity
68189;DHT22;66299;47.514;19.218;2024-02-16T00:00:30;6.89;90.62
68189;DHT22;66299;47.514;19.218;2024-02-16T00:03:00;6.86;90.43
68189;DHT22;66299;47.514;19.218;2024-02-16T00:05:29;6.87;90.61
68189;DHT22;66299;47.514;19.218;2024-02-16T00:07:58;6.86;90.50
68189;DHT22;66299;47.514;19.218;2024-02-16T00:10:28;6.86;90.33
68189;DHT22;66299;47.514;19.218;2024-02-16T00:12:57;6.83;90.44
68189;DHT22;66299;47.514;19.218;2024-02-16T00:15:27;6.85;90.43
68189;DHT22;66299;47.514;19.218;2024-02-16T00:17:55;6.83;90.40
68189;DHT22;66299;47.514;19.218;2024-02-16T00:20:26;6.82;90.30
68189;DHT22;66299;47.514;19.218;2024-02-16T00:22:56;6.83;90.01
68189;DHT22;66299;47.514;19.218;2024-02-16T00:25:25;6.87;90.44
68189;DHT22;66299;47.514;19.218;2024-02-16T00:27:54;6.87;89.84
68189;DHT22;66299;47.514;19.218;2024-02-16T00:30:23;6.87;90.42
68189;DHT22;66299;47.514;19.218;2024-02-16T00:32:52;6.86;90.28
68189;DHT22;66299;47.514;19.218;2024-02-16T00:35:21;6.85;90.28
68189;DHT22;66299;47.514;19.218;2024-02-16T00:37:52;6.82;90.11
68189;DHT22;66299;47.514;19.218;2024-02-16T00:40:22;6.83;89.92
68189;DHT22;66299;47.514;19.218;2024-02-16T00:42:51;6.82;90.15
68189;DHT22;66299;47.514;19.218;2024-02-16T00:45:20;6.89;89.41
68189;DHT22;66299;47.514;19.218;2024-02-16T00:47:48;6.87;89.74
68189;DHT22;66299;47.514;19.218;2024-02-16T00:50:17;6.87;89.74
68189;DHT22;66299;47.514;19.218;2024-02-16T00:52:46;6.87;89.28
68189;DHT22;66299;47.514;19.218;2024-02-16T00:55:16;6.89;89.36
68189;DHT22;66299;47.514;19.218;2024-02-16T00:57:46;6.82;90.10
68189;DHT22;66299;47.514;19.218;2024-02-16T01:00:15;6.79;90.59
68189;DHT22;66299;47.514;19.218;2024-02-16T01:02:45;6.82;89.66
68189;DHT22;66299;47.514;19.218;2024-02-16T01:05:13;6.85;89.25
68189;DHT22;66299;47.514;19.218;2024-02-16T01:07:45;6.83;89.24
68189;DHT22;66299;47.514;19.218;2024-02-16T01:10:16;6.83;89.08
68189;DHT22;66299;47.514;19.218;2024-02-16T01:12:45;6.82;88.99
68189;DHT22;66299;47.514;19.218;2024-02-16T01:15:13;6.83;88.65
68189;DHT22;66299;47.514;19.218;2024-02-16T01:17:43;6.85;88.72
68189;DHT22;66299;47.514;19.218;2024-02-16T01:20:13;6.85;88.41
68189;DHT22;66299;47.514;19.218;2024-02-16T01:22:42;6.87;88.38
68189;DHT22;66299;47.514;19.218;2024-02-16T01:25:12;6.90;88.44
68189;DHT22;66299;47.514;19.218;2024-02-16T01:27:42;6.89;87.88
68189;DHT22;66299;47.514;19.218;2024-02-16T01:30:11;6.90;87.78
68189;DHT22;66299;47.514;19.218;2024-02-16T01:32:43;6.90;87.57
68189;DHT22;66299;47.514;19.218;2024-02-16T01:35:13;6.89;87.98
68189;DHT22;66299;47.514;19.218;2024-02-16T01:37:44;6.89;87.85
68189;DHT22;66299;47.514;19.218;2024-02-16T01:40:14;6.92;87.73
68189;DHT22;66299;47.514;19.218;2024-02-16T01:42:47;6.89;87.43
68189;DHT22;66299;47.514;19.218;2024-02-16T01:45:17;6.90;87.77
68189;DHT22;66299;47.514;19.218;2024-02-16T01:47:49;6.90;87.99
68189;DHT22;66299;47.514;19.218;2024-02-16T01:50:19;6.90;88.22
68189;DHT22;66299;47.514;19.218;2024-02-16T01:52:50;6.89;88.14
68189;DHT22;66299;47.514;19.218;2024-02-16T01:55:19;6.83;88.59
68189;DHT22;66299;47.514;19.218;2024-02-16T01:57:50;6.82;88.47
68189;DHT22;66299;47.514;19.218;2024-02-16T02:00:19;6.79;88.71
68189;DHT22;66299;47.514;19.218;2024-02-16T02:02:48;6.80;88.83
68189;DHT22;66299;47.514;19.218;2024-02-16T02:05:17;6.80;88.48
68189;DHT22;66299;47.514;19.218;2024-02-16T02:07:47;6.76;88.95
68189;DHT22;66299;47.514;19.218;2024-02-16T02:10:15;6.73;88.54
68189;DHT22;66299;47.514;19.218;2024-02-16T02:12:44;6.76;88.78
68189;DHT22;66299;47.514;19.218;2024-02-16T02:15:15;6.72;88.87
68189;DHT22;66299;47.514;19.218;2024-02-16T02:17:45;6.66;88.95
68189;DHT22;66299;47.514;19.218;2024-02-16T02:20:13;6.57;89.38
68189;DHT22;66299;47.514;19.218;2024-02-16T02:22:43;6.46;89.38
68189;DHT22;66299;47.514;19.218;2024-02-16T02:25:12;6.41;89.44
68189;DHT22;66299;47.514;19.218;2024-02-16T02:27:41;6.29;89.83
68189;DHT22;66299;47.514;19.218;2024-02-16T02:30:11;6.14;90.19
68189;DHT22;66299;47.514;19.218;2024-02-16T02:32:39;6.03;90.49
68189;DHT22;66299;47.514;19.218;2024-02-16T02:35:10;5.93;90.76
68189;DHT22;66299;47.514;19.218;2024-02-16T02:37:41;5.83;91.04
68189;DHT22;66299;47.514;19.218;2024-02-16T02:40:13;5.79;91.29
68189;DHT22;66299;47.514;19.218;2024-02-16T02:42:42;5.71;91.45
68189;DHT22;66299;47.514;19.218;2024-02-16T02:45:11;5.59;91.72
68189;DHT22;66299;47.514;19.218;2024-02-16T02:47:40;5.52;92.09
68189;DHT22;66299;47.514;19.218;2024-02-16T02:50:09;5.48;92.42
68189;DHT22;66299;47.514;19.218;2024-02-16T02:52:38;5.38;92.74
68189;DHT22;66299;47.514;19.218;2024-02-16T02:55:07;5.34;92.91
68189;DHT22;66299;47.514;19.218;2024-02-16T02:57:39;5.28;93.09
68189;DHT22;66299;47.514;19.218;2024-02-16T03:00:08;5.19;93.22
68189;DHT22;66299;47.514;19.218;2024-02-16T03:02:39;5.08;93.54
68189;DHT22;66299;47.514;19.218;2024-02-16T03:05:09;5.04;93.73
68189;DHT22;66299;47.514;19.218;2024-02-16T03:07:38;5.02;93.65
68189;DHT22;66299;47.514;19.218;2024-02-16T03:10:08;4.94;93.91
68189;DHT22;66299;47.514;19.218;2024-02-16T03:12:39;4.88;93.99
68189;DHT22;66299;47.514;19.218;2024-02-16T03:15:08;4.77;94.54
68189;DHT22;66299;47.514;19.218;2024-02-16T03:17:37;4.64;94.90
68189;DHT22;66299;47.514;19.218;2024-02-16T03:20:06;4.57;94.98
68189;DHT22;66299;47.514;19.218;2024-02-16T03:22:36;4.52;95.18
68189;DHT22;66299;47.514;19.218;2024-02-16T03:25:07;4.46;94.96
68189;DHT22;66299;47.514;19.218;2024-02-16T03:27:36;4.48;95.48
68189;DHT22;66299;47.514;19.218;2024-02-16T03:30:08;4.42;95.16
68189;DHT22;66299;47.514;19.218;2024-02-16T03:32:38;4.38;95.55
68189;DHT22;66299;47.514;19.218;2024-02-16T03:35:07;4.35;95.56
68189;DHT22;66299;47.514;19.218;2024-02-16T03:37:36;4.32;95.39
68189;DHT22;66299;47.514;19.218;2024-02-16T03:40:05;4.18;95.92
68189;DHT22;66299;47.514;19.218;2024-02-16T03:42:35;4.14;96.21
68189;DHT22;66299;47.514;19.218;2024-02-16T03:45:07;4.09;96.17
68189;DHT22;66299;47.514;19.218;2024-02-16T03:47:36;4.09;96.25
68189;DHT22;66299;47.514;19.218;2024-02-16T03:50:06;4.01;96.33
68189;DHT22;66299;47.514;19.218;2024-02-16T03:52:36;4.04;96.43
68189;DHT22;66299;47.514;19.218;2024-02-16T03:55:04;4.05;96.58
68189;DHT22;66299;47.514;19.218;2024-02-16T03:57:33;4.05;96.58
68189;DHT22;66299;47.514;19.218;2024-02-16T04:00:03;4.01;96.51
68189;DHT22;66299;47.514;19.218;2024-02-16T04:02:35;3.99;96.64
68189;DHT22;66299;47.514;19.218;2024-02-16T04:05:05;4.04;96.58
68189;DHT22;66299;47.514;19.218;2024-02-16T04:07:37;4.04;96.44
68189;DHT22;66299;47.514;19.218;2024-02-16T04:10:06;3.99;96.52
68189;DHT22;66299;47.514;19.218;2024-02-16T04:12:35;3.97;96.56
68189;DHT22;66299;47.514;19.218;2024-02-16T04:15:05;4.01;96.65
68189;DHT22;66299;47.514;19.218;2024-02-16T04:17:35;4.02;96.45
68189;DHT22;66299;47.514;19.218;2024-02-16T04:20:06;3.95;96.60
68189;DHT22;66299;47.514;19.218;2024-02-16T04:22:38;3.93;96.67
68189;DHT22;66299;47.514;19.218;2024-02-16T04:25:10;3.90;96.68
68189;DHT22;66299;47.514;19.218;2024-02-16T04:27:44;3.90;96.73
68189;DHT22;66299;47.514;19.218;2024-02-16T04:30:14;3.85;96.82
68189;DHT22;66299;47.514;19.218;2024-02-16T04:32:45;3.80;96.88
68189;DHT22;66299;47.514;19.218;2024-02-16T04:35:16;3.77;97.00
68189;DHT22;66299;47.514;19.218;2024-02-16T04:37:44;3.70;97.09
68189;DHT22;66299;47.514;19.218;2024-02-16T04:40:14;3.75;97.25
68189;DHT22;66299;47.514;19.218;2024-02-16T04:42:46;3.75;97.09
68189;DHT22;66299;47.514;19.218;2024-02-16T04:45:16;3.70;97.11
68189;DHT22;66299;47.514;19.218;2024-02-16T04:47:47;3.60;97.35
68189;DHT22;66299;47.514;19.218;2024-02-16T04:50:16;3.56;97.48
68189;DHT22;66299;47.514;19.218;2024-02-16T04:52:46;3.53;97.58
68189;DHT22;66299;47.514;19.218;2024-02-16T04:55:14;3.59;97.57
68189;DHT22;66299;47.514;19.218;2024-02-16T04:57:42;3.54;97.45
68189;DHT22;66299;47.514;19.218;2024-02-16T05:00:15;3.50;97.42
68189;DHT22;66299;47.514;19.218;2024-02-16T05:02:47;3.44;97.54
68189;DHT22;66299;47.514;19.218;2024-02-16T05:05:17;3.39;97.64
68189;DHT22;66299;47.514;19.218;2024-02-16T05:07:49;3.29;97.91
68189;DHT22;66299;47.514;19.218;2024-02-16T05:10:18;3.29;98.01
68189;DHT22;66299;47.514;19.218;2024-02-16T05:12:48;3.27;97.93
68189;DHT22;66299;47.514;19.218;2024-02-16T05:15:16;3.30;98.01
68189;DHT22;66299;47.514;19.218;2024-02-16T05:17:47;3.33;97.77
68189;DHT22;66299;47.514;19.218;2024-02-16T05:20:20;3.29;97.68
68189;DHT22;66299;47.514;19.218;2024-02-16T05:22:52;3.33;97.66
68189;DHT22;66299;47.514;19.218;2024-02-16T05:25:22;3.27;97.74
68189;DHT22;66299;47.514;19.218;2024-02-16T05:27:50;3.26;97.64
68189;DHT22;66299;47.514;19.218;2024-02-16T05:30:19;3.19;97.75
68189;DHT22;66299;47.514;19.218;2024-02-16T05:32:48;3.23;97.65
68189;DHT22;66299;47.514;19.218;2024-02-16T05:35:19;3.19;97.48
68189;DHT22;66299;47.514;19.218;2024-02-16T05:37:48;3.20;97.61
68189;DHT22;66299;47.514;19.218;2024-02-16T05:40:19;3.18;97.65
68189;DHT22;66299;47.514;19.218;2024-02-16T05:42:52;3.18;97.47
68189;DHT22;66299;47.514;19.218;2024-02-16T05:45:23;3.13;97.60
68189;DHT22;66299;47.514;19.218;2024-02-16T05:47:53;3.11;97.71
68189;DHT22;66299;47.514;19.218;2024-02-16T05:50:23;3.13;97.62
68189;DHT22;66299;47.514;19.218;2024-02-16T05:52:54;3.13;97.51
68189;DHT22;66299;47.514;19.218;2024-02-16T05:55:26;3.04;97.68
68189;DHT22;66299;47.514;19.218;2024-02-16T05:57:57;3.05;97.68
68189;DHT22;66299;47.514;19.218;2024-02-16T06:00:28;3.12;97.58
68189;DHT22;66299;47.514;19.218;2024-02-16T06:02:59;3.04;97.64
68189;DHT22;66299;47.514;19.218;2024-02-16T06:05:29;3.04;97.52
68189;DHT22;66299;47.514;19.218;2024-02-16T06:07:57;2.98;97.63
68189;DHT22;66299;47.514;19.218;2024-02-16T06:10:26;2.98;97.68
68189;DHT22;66299;47.514;19.218;2024-02-16T06:12:55;2.98;97.71
68189;DHT22;66299;47.514;19.218;2024-02-16T06:15:26;2.95;97.62
68189;DHT22;66299;47.514;19.218;2024-02-16T06:17:55;2.94;97.56
68189;DHT22;66299;47.514;19.218;2024-02-16T06:20:24;2.94;97.52
68189;DHT22;66299;47.514;19.218;2024-02-16T06:22:56;2.91;97.79
68189;DHT22;66299;47.514;19.218;2024-02-16T06:25:29;2.99;97.79
68189;DHT22;66299;47.514;19.218;2024-02-16T06:27:58;3.05;97.80
68189;DHT22;66299;47.514;19.218;2024-02-16T06:30:26;3.09;97.77
68189;DHT22;66299;47.514;19.218;2024-02-16T06:32:57;3.23;97.24
68189;DHT22;66299;47.514;19.218;2024-02-16T06:35:29;3.27;97.28
68189;DHT22;66299;47.514;19.218;2024-02-16T06:37:58;3.32;97.25
68189;DHT22;66299;47.514;19.218;2024-02-16T06:40:27;3.32;97.12
68189;DHT22;66299;47.514;19.218;2024-02-16T06:42:56;3.36;97.19
68189;DHT22;66299;47.514;19.218;2024-02-16T06:45:26;3.46;97.04
68189;DHT22;66299;47.514;19.218;2024-02-16T06:47:57;3.49;96.99
68189;DHT22;66299;47.514;19.218;2024-02-16T06:50:29;3.49;96.75
68189;DHT22;66299;47.514;19.218;2024-02-16T06:53:00;3.59;96.85
68189;DHT22;66299;47.514;19.218;2024-02-16T06:55:32;3.64;96.58
68189;DHT22;66299;47.514;19.218;2024-02-16T06:58:04;3.73;96.61
68189;DHT22;66299;47.514;19.218;2024-02-16T07:00:34;3.78;96.55
68189;DHT22;66299;47.514;19.218;2024-02-16T07:03:06;3.90;96.41
68189;DHT22;66299;47.514;19.218;2024-02-16T07:05:37;3.98;96.27
68189;DHT22;66299;47.514;19.218;2024-02-16T07:08:09;4.02;96.07
68189;DHT22;66299;47.514;19.218;2024-02-16T07:10:39;4.15;95.96
68189;DHT22;66299;47.514;19.218;2024-02-16T07:13:09;4.21;95.98
68189;DHT22;66299;47.514;19.218;2024-02-16T07:15:40;4.29;95.81
68189;DHT22;66299;47.514;19.218;2024-02-16T07:18:11;4.42;95.49
68189;DHT22;66299;47.514;19.218;2024-02-16T07:20:42;4.54;95.25
68189;DHT22;66299;47.514;19.218;2024-02-16T07:23:17;4.62;94.80
68189;DHT22;66299;47.514;19.218;2024-02-16T07:25:45;4.84;93.93
68189;DHT22;66299;47.514;19.218;2024-02-16T07:28:16;4.91;94.50
68189;DHT22;66299;47.514;19.218;2024-02-16T07:30:47;5.07;94.14
68189;DHT22;66299;47.514;19.218;2024-02-16T07:33:20;5.12;93.81
68189;DHT22;66299;47.514;19.218;2024-02-16T07:35:51;5.35;92.59
68189;DHT22;66299;47.514;19.218;2024-02-16T07:38:21;5.43;92.07
68189;DHT22;66299;47.514;19.218;2024-02-16T07:40:55;5.55;92.10
68189;DHT22;66299;47.514;19.218;2024-02-16T07:43:25;5.63;92.00
68189;DHT22;66299;47.514;19.218;2024-02-16T07:45:54;5.97;90.15
68189;DHT22;66299;47.514;19.218;2024-02-16T07:48:24;6.04;88.51
68189;DHT22;66299;47.514;19.218;2024-02-16T07:50:55;6.28;88.69
68189;DHT22;66299;47.514;19.218;2024-02-16T07:53:29;6.22;88.83
68189;DHT22;66299;47.514;19.218;2024-02-16T07:55:58;6.31;86.46
68189;DHT22;66299;47.514;19.218;2024-02-16T07:58:29;6.52;85.71
68189;DHT22;66299;47.514;19.218;2024-02-16T08:01:00;6.38;86.35
68189;DHT22;66299;47.514;19.218;2024-02-16T08:03:30;6.55;85.56
68189;DHT22;66299;47.514;19.218;2024-02-16T08:06:05;6.61;85.78
68189;DHT22;66299;47.514;19.218;2024-02-16T08:08:38;6.72;84.60
68189;DHT22;66299;47.514;19.218;2024-02-16T08:11:08;6.89;83.98
68189;DHT22;66299;47.514;19.218;2024-02-16T08:13:44;7.06;82.96
68189;DHT22;66299;47.514;19.218;2024-02-16T08:16:18;7.03;83.40
68189;DHT22;66299;47.514;19.218;2024-02-16T08:18:46;7.07;82.47
68189;DHT22;66299;47.514;19.218;2024-02-16T08:21:16;7.40;82.06
68189;DHT22;66299;47.514;19.218;2024-02-16T08:23:52;7.58;80.83
68189;DHT22;66299;47.514;19.218;2024-02-16T08:26:23;7.72;80.46
68189;DHT22;66299;47.514;19.218;2024-02-16T08:28:55;7.81;79.80
68189;DHT22;66299;47.514;19.218;2024-02-16T08:31:29;7.79;78.89
68189;DHT22;66299;47.514;19.218;2024-02-16T08:34:00;7.92;77.37
68189;DHT22;66299;47.514;19.218;2024-02-16T08:36:33;7.97;77.21
68189;DHT22;66299;47.514;19.218;2024-02-16T08:39:06;8.26;76.71
68189;DHT22;66299;47.514;19.218;2024-02-16T08:41:34;8.29;77.60
68189;DHT22;66299;47.514;19.218;2024-02-16T08:44:07;8.24;76.67
68189;DHT22;66299;47.514;19.218;2024-02-16T08:46:39;8.38;77.45
68189;DHT22;66299;47.514;19.218;2024-02-16T08:49:09;8.67;76.14
68189;DHT22;66299;47.514;19.218;2024-02-16T08:51:41;8.75;74.00
68189;DHT22;66299;47.514;19.218;2024-02-16T08:54:14;9.12;73.37
68189;DHT22;66299;47.514;19.218;2024-02-16T08:56:47;9.07;72.12
68189;DHT22;66299;47.514;19.218;2024-02-16T08:59:16;9.12;72.06
68189;DHT22;66299;47.514;19.218;2024-02-16T09:01:47;9.31;70.24
68189;DHT22;66299;47.514;19.218;2024-02-16T09:04:17;9.51;69.56
68189;DHT22;66299;47.514;19.218;2024-02-16T09:06:47;9.74;70.54
68189;DHT22;66299;47.514;19.218;2024-02-16T09:09:20;9.81;71.33
68189;DHT22;66299;47.514;19.218;2024-02-16T09:11:51;9.68;70.83
68189;DHT22;66299;47.514;19.218;2024-02-16T09:14:24;9.82;68.67
68189;DHT22;66299;47.514;19.218;2024-02-16T09:16:55;9.73;68.92
68189;DHT22;66299;47.514;19.218;2024-02-16T09:19:23;9.65;68.17
68189;DHT22;66299;47.514;19.218;2024-02-16T09:21:54;9.70;69.22
68189;DHT22;66299;47.514;19.218;2024-02-16T09:24:27;9.77;68.08
68189;DHT22;66299;47.514;19.218;2024-02-16T09:26:58;10.01;67.58
68189;DHT22;66299;47.514;19.218;2024-02-16T09:29:31;10.08;67.54
68189;DHT22;66299;47.514;19.218;2024-02-16T09:32:00;10.23;66.66
68189;DHT22;66299;47.514;19.218;2024-02-16T09:34:34;10.28;67.92
68189;DHT22;66299;47.514;19.218;2024-02-16T09:37:07;9.88;67.97
68189;DHT22;66299;47.514;19.218;2024-02-16T09:39:40;10.22;67.97
68189;DHT22;66299;47.514;19.218;2024-02-16T09:42:11;10.16;69.42
68189;DHT22;66299;47.514;19.218;2024-02-16T09:44:44;10.15;68.25
68189;DHT22;66299;47.514;19.218;2024-02-16T09:47:17;10.47;66.78
68189;DHT22;66299;47.514;19.218;2024-02-16T09:49:50;10.85;66.70
68189;DHT22;66299;47.514;19.218;2024-02-16T09:52:24;10.37;68.01
68189;DHT22;66299;47.514;19.218;2024-02-16T09:54:57;10.77;68.29
68189;DHT22;66299;47.514;19.218;2024-02-16T09:57:27;10.43;67.33
68189;DHT22;66299;47.514;19.218;2024-02-16T09:59:58;10.46;68.46
68189;DHT22;66299;47.514;19.218;2024-02-16T10:02:28;11.19;66.83
68189;DHT22;66299;47.514;19.218;2024-02-16T10:04:58;10.98;66.58
68189;DHT22;66299;47.514;19.218;2024-02-16T10:07:33;10.81;67.76
68189;DHT22;66299;47.514;19.218;2024-02-16T10:10:07;10.61;67.60
68189;DHT22;66299;47.514;19.218;2024-02-16T10:12:49;11.19;67.07
68189;DHT22;66299;47.514;19.218;2024-02-16T10:15:22;10.84;67.65
68189;DHT22;66299;47.514;19.218;2024-02-16T10:17:58;11.18;67.25
68189;DHT22;66299;47.514;19.218;2024-02-16T10:20:28;11.30;66.99
68189;DHT22;66299;47.514;19.218;2024-02-16T10:23:06;11.05;68.31
68189;DHT22;66299;47.514;19.218;2024-02-16T10:25:39;11.29;67.39
68189;DHT22;66299;47.514;19.218;2024-02-16T10:28:11;11.02;67.74
68189;DHT22;66299;47.514;19.218;2024-02-16T10:30:44;11.53;66.23
68189;DHT22;66299;47.514;19.218;2024-02-16T10:33:15;11.66;66.02
68189;DHT22;66299;47.514;19.218;2024-02-16T10:35:45;11.46;66.52
68189;DHT22;66299;47.514;19.218;2024-02-16T10:38:14;11.42;67.04
68189;DHT22;66299;47.514;19.218;2024-02-16T10:40:48;11.70;65.53
68189;DHT22;66299;47.514;19.218;2024-02-16T10:43:21;11.38;66.32
68189;DHT22;66299;47.514;19.218;2024-02-16T10:45:53;11.60;66.22
68189;DHT22;66299;47.514;19.218;2024-02-16T10:48:24;11.36;67.10
68189;DHT22;66299;47.514;19.218;2024-02-16T10:50:59;11.30;66.88
68189;DHT22;66299;47.514;19.218;2024-02-16T10:53:32;11.26;67.26
68189;DHT22;66299;47.514;19.218;2024-02-16T10:56:10;11.39;68.03
68189;DHT22;66299;47.514;19.218;2024-02-16T10:58:39;11.81;65.93
68189;DHT22;66299;47.514;19.218;2024-02-16T11:01:14;11.95;66.40
68189;DHT22;66299;47.514;19.218;2024-02-16T11:03:46;11.78;65.51
68189;DHT22;66299;47.514;19.218;2024-02-16T11:06:18;11.62;66.53
68189;DHT22;66299;47.514;19.218;2024-02-16T11:08:50;11.55;66.82
68189;DHT22;66299;47.514;19.218;2024-02-16T11:11:24;11.90;66.05
68189;DHT22;66299;47.514;19.218;2024-02-16T11:13:56;11.76;66.66
68189;DHT22;66299;47.514;19.218;2024-02-16T11:16:26;11.86;66.26
68189;DHT22;66299;47.514;19.218;2024-02-16T11:18:58;11.90;66.15
68189;DHT22;66299;47.514;19.218;2024-02-16T11:21:31;11.93;65.99
68189;DHT22;66299;47.514;19.218;2024-02-16T11:24:08;11.91;66.01
68189;DHT22;66299;47.514;19.218;2024-02-16T11:26:46;12.13;65.72
68189;DHT22;66299;47.514;19.218;2024-02-16T11:29:26;12.07;66.83
68189;DHT22;66299;47.514;19.218;2024-02-16T11:32:03;12.28;66.19
68189;DHT22;66299;47.514;19.218;2024-02-16T11:34:33;12.42;65.30
68189;DHT22;66299;47.514;19.218;2024-02-16T11:37:07;11.80;66.47
68189;DHT22;66299;47.514;19.218;2024-02-16T11:39:36;12.39;66.56
68189;DHT22;66299;47.514;19.218;2024-02-16T11:42:10;12.67;65.15
68189;DHT22;66299;47.514;19.218;2024-02-16T11:44:50;12.17;66.03
68189;DHT22;66299;47.514;19.218;2024-02-16T11:47:23;12.13;66.55
68189;DHT22;66299;47.514;19.218;2024-02-16T11:50:03;12.38;66.85
68189;DHT22;66299;47.514;19.218;2024-02-16T11:52:37;12.59;65.09
68189;DHT22;66299;47.514;19.218;2024-02-16T11:55:08;12.57;65.85
68189;DHT22;66299;47.514;19.218;2024-02-16T11:57:40;12.73;65.42
68189;DHT22;66299;47.514;19.218;2024-02-16T12:00:13;12.20;66.94
68189;DHT22;66299;47.514;19.218;2024-02-16T12:02:46;12.39;65.63
68189;DHT22;66299;47.514;19.218;2024-02-16T12:05:15;12.55;66.71
68189;DHT22;66299;47.514;19.218;2024-02-16T12:07:48;12.55;65.95
68189;DHT22;66299;47.514;19.218;2024-02-16T12:10:18;12.53;65.80
68189;DHT22;66299;47.514;19.218;2024-02-16T12:12:50;12.72;65.95
68189;DHT22;66299;47.514;19.218;2024-02-16T12:15:23;12.92;65.00
68189;DHT22;66299;47.514;19.218;2024-02-16T12:18:04;12.53;66.44
68189;DHT22;66299;47.514;19.218;2024-02-16T12:20:36;12.45;65.63
68189;DHT22;66299;47.514;19.218;2024-02-16T12:23:13;12.49;65.96
68189;DHT22;66299;47.514;19.218;2024-02-16T12:25:45;12.90;65.95
68189;DHT22;66299;47.514;19.218;2024-02-16T12:28:17;12.93;65.43
68189;DHT22;66299;47.514;19.218;2024-02-16T12:30:49;12.70;64.90
68189;DHT22;66299;47.514;19.218;2024-02-16T12:33:22;12.63;65.78
68189;DHT22;66299;47.514;19.218;2024-02-16T12:35:53;12.65;65.08
68189;DHT22;66299;47.514;19.218;2024-02-16T12:38:26;12.89;65.16
68189;DHT22;66299;47.514;19.218;2024-02-16T12:40:56;12.75;65.69
68189;DHT22;66299;47.514;19.218;2024-02-16T12:43:28;12.72;65.20
68189;DHT22;66299;47.514;19.218;2024-02-16T12:45:59;12.49;65.66
68189;DHT22;66299;47.514;19.218;2024-02-16T12:48:30;12.42;66.09
68189;DHT22;66299;47.514;19.218;2024-02-16T12:51:01;12.94;64.48
68189;DHT22;66299;47.514;19.218;2024-02-16T12:53:30;13.42;64.22
68189;DHT22;66299;47.514;19.218;2024-02-16T12:56:10;13.47;62.47
68189;DHT22;66299;47.514;19.218;2024-02-16T12:58:47;13.40;63.84
68189;DHT22;66299;47.514;19.218;2024-02-16T13:01:17;14.10;62.39
68189;DHT22;66299;47.514;19.218;2024-02-16T13:03:52;13.92;61.75
68189;DHT22;66299;47.514;19.218;2024-02-16T13:06:26;14.42;60.10
68189;DHT22;66299;47.514;19.218;2024-02-16T13:08:56;16.00;56.90
68189;DHT22;66299;47.514;19.218;2024-02-16T13:11:26;16.53;55.91
68189;DHT22;66299;47.514;19.218;2024-02-16T13:14:00;16.01;56.30
68189;DHT22;66299;47.514;19.218;2024-02-16T13:16:30;16.70;54.71
68189;DHT22;66299;47.514;19.218;2024-02-16T13:19:03;16.71;54.75
68189;DHT22;66299;47.514;19.218;2024-02-16T13:21:33;17.63;52.94
68189;DHT22;66299;47.514;19.218;2024-02-16T13:24:01;17.75;52.91
68189;DHT22;66299;47.514;19.218;2024-02-16T13:26:33;16.39;54.51
68189;DHT22;66299;47.514;19.218;2024-02-16T13:29:03;17.04;54.38
68189;DHT22;66299;47.514;19.218;2024-02-16T13:31:32;16.00;55.86
68189;DHT22;66299;47.514;19.218;2024-02-16T13:34:03;13.75;60.69
68189;DHT22;66299;47.514;19.218;2024-02-16T13:36:31;12.67;65.03
68189;DHT22;66299;47.514;19.218;2024-02-16T13:39:03;12.26;66.55
68189;DHT22;66299;47.514;19.218;2024-02-16T13:41:36;12.52;66.55
68189;DHT22;66299;47.514;19.218;2024-02-16T13:44:08;12.14;66.61
68189;DHT22;66299;47.514;19.218;2024-02-16T13:46:38;12.44;66.34
68189;DHT22;66299;47.514;19.218;2024-02-16T13:49:07;12.26;67.50
68189;DHT22;66299;47.514;19.218;2024-02-16T13:51:36;12.34;67.22
68189;DHT22;66299;47.514;19.218;2024-02-16T13:54:07;12.28;67.14
68189;DHT22;66299;47.514;19.218;2024-02-16T13:56:36;12.10;67.47
68189;DHT22;66299;47.514;19.218;2024-02-16T13:59:07;12.10;67.93
68189;DHT22;66299;47.514;19.218;2024-02-16T14:01:36;12.08;68.24
68189;DHT22;66299;47.514;19.218;2024-02-16T14:04:07;12.22;68.12
68189;DHT22;66299;47.514;19.218;2024-02-16T14:06:36;12.11;67.58
68189;DHT22;66299;47.514;19.218;2024-02-16T14:09:05;11.97;68.46
68189;DHT22;66299;47.514;19.218;2024-02-16T14:11:46;12.04;68.25
68189;DHT22;66299;47.514;19.218;2024-02-16T14:14:16;11.97;68.35
68189;DHT22;66299;47.514;19.218;2024-02-16T14:16:58;11.95;68.38
68189;DHT22;66299;47.514;19.218;2024-02-16T14:19:27;11.88;68.43
68189;DHT22;66299;47.514;19.218;2024-02-16T14:21:57;11.91;68.74
68189;DHT22;66299;47.514;19.218;2024-02-16T14:24:26;11.86;68.56
68189;DHT22;66299;47.514;19.218;2024-02-16T14:26:56;11.80;68.77
68189;DHT22;66299;47.514;19.218;2024-02-16T14:29:28;11.71;68.83
68189;DHT22;66299;47.514;19.218;2024-02-16T14:31:58;11.70;69.16
68189;DHT22;66299;47.514;19.218;2024-02-16T14:34:27;11.66;69.29
68189;DHT22;66299;47.514;19.218;2024-02-16T14:36:58;11.63;69.42
68189;DHT22;66299;47.514;19.218;2024-02-16T14:39:27;11.63;69.24
68189;DHT22;66299;47.514;19.218;2024-02-16T14:41:55;11.50;69.53
68189;DHT22;66299;47.514;19.218;2024-02-16T14:44:24;11.49;69.88
68189;DHT22;66299;47.514;19.218;2024-02-16T14:46:54;11.40;69.82
68189;DHT22;66299;47.514;19.218;2024-02-16T14:49:26;11.39;69.62
68189;DHT22;66299;47.514;19.218;2024-02-16T14:51:58;11.38;69.83
68189;DHT22;66299;47.514;19.218;2024-02-16T14:54:28;11.30;70.13
68189;DHT22;66299;47.514;19.218;2024-02-16T14:56:56;11.21;71.18
68189;DHT22;66299;47.514;19.218;2024-02-16T14:59:26;11.12;70.59
68189;DHT22;66299;47.514;19.218;2024-02-16T15:01:59;11.14;70.88
68189;DHT22;66299;47.514;19.218;2024-02-16T15:04:29;11.12;71.45
68189;DHT22;66299;47.514;19.218;2024-02-16T15:06:59;11.11;70.99
68189;DHT22;66299;47.514;19.218;2024-02-16T15:09:30;10.95;71.67
68189;DHT22;66299;47.514;19.218;2024-02-16T15:12:02;10.95;71.68
68189;DHT22;66299;47.514;19.218;2024-02-16T15:14:33;10.92;71.57
68189;DHT22;66299;47.514;19.218;2024-02-16T15:17:04;10.82;72.00
68189;DHT22;66299;47.514;19.218;2024-02-16T15:19:33;10.85;72.27
68189;DHT22;66299;47.514;19.218;2024-02-16T15:22:06;10.74;72.51
68189;DHT22;66299;47.514;19.218;2024-02-16T15:24:38;10.70;72.28
68189;DHT22;66299;47.514;19.218;2024-02-16T15:27:08;10.64;72.54
68189;DHT22;66299;47.514;19.218;2024-02-16T15:29:38;10.50;73.05
68189;DHT22;66299;47.514;19.218;2024-02-16T15:32:09;10.53;72.91
68189;DHT22;66299;47.514;19.218;2024-02-16T15:34:38;10.46;73.23
68189;DHT22;66299;47.514;19.218;2024-02-16T15:37:17;10.30;73.80
68189;DHT22;66299;47.514;19.218;2024-02-16T15:39:48;10.30;73.88
68189;DHT22;66299;47.514;19.218;2024-02-16T15:42:19;10.25;73.97
68189;DHT22;66299;47.514;19.218;2024-02-16T15:44:53;10.15;74.57
68189;DHT22;66299;47.514;19.218;2024-02-16T15:47:24;10.05;74.72